createdAt,value
2016-02-13T00:00:15.158Z,985.62
2016-02-13T00:01:15.192Z,985.62
2016-02-13T00:02:15.194Z,985.59
2016-02-13T00:03:15.212Z,985.58
2016-02-13T00:04:15.232Z,985.58
2016-02-13T00:05:15.251Z,985.54
2016-02-13T00:06:15.268Z,985.58
2016-02-13T00:07:15.271Z,985.54
2016-02-13T00:08:15.289Z,985.54
2016-02-13T00:09:15.308Z,985.56
2016-02-13T00:10:15.327Z,985.47
2016-02-13T00:11:15.347Z,985.49
2016-02-13T00:12:15.364Z,985.48
2016-02-13T00:13:15.383Z,985.43
2016-02-13T00:14:15.385Z,985.41
2016-02-13T00:15:15.404Z,985.4
2016-02-13T00:16:15.422Z,985.38
2016-02-13T00:17:15.441Z,985.36
2016-02-13T00:18:15.444Z,985.38
2016-02-13T00:19:15.463Z,985.38
2016-02-13T00:20:15.481Z,985.36
2016-02-13T00:21:15.500Z,985.4
2016-02-13T00:22:15.521Z,985.38
2016-02-13T00:23:15.523Z,985.36
2016-02-13T00:24:15.542Z,985.37
2016-02-13T00:25:15.560Z,985.38
2016-02-13T00:26:15.578Z,985.37
2016-02-13T00:27:15.598Z,985.36
2016-02-13T00:28:15.617Z,985.31
2016-02-13T00:29:15.619Z,985.32
2016-02-13T00:30:15.638Z,985.34
2016-02-13T00:31:15.656Z,985.36
2016-02-13T00:32:15.674Z,985.35
2016-02-13T00:33:15.693Z,985.34
2016-02-13T00:34:15.710Z,985.34
2016-02-13T00:35:15.713Z,985.33
2016-02-13T00:36:15.733Z,985.33
2016-02-13T00:37:15.751Z,985.31
2016-02-13T00:38:15.769Z,985.28
2016-02-13T00:39:15.788Z,985.26
2016-02-13T00:40:15.791Z,985.27
2016-02-13T00:41:15.809Z,985.26
2016-02-13T00:42:15.827Z,985.22
2016-02-13T00:43:15.846Z,985.23
2016-02-13T00:44:15.865Z,985.21
2016-02-13T00:45:15.883Z,985.24
2016-02-13T00:46:15.886Z,985.18
2016-02-13T00:47:15.904Z,985.22
2016-02-13T00:48:15.922Z,985.18
2016-02-13T00:49:15.941Z,985.17
2016-02-13T00:50:15.959Z,985.17
2016-02-13T00:51:15.977Z,985.19
2016-02-13T00:52:15.996Z,985.19
2016-02-13T00:53:16.014Z,985.21
2016-02-13T00:54:16.021Z,985.24
2016-02-13T00:55:16.024Z,985.2
2016-02-13T00:56:16.047Z,985.19
2016-02-13T00:57:16.065Z,985.16
2016-02-13T00:58:16.084Z,985.2
2016-02-13T00:59:16.087Z,985.17
2016-02-13T01:00:16.105Z,985.16
2016-02-13T01:01:16.123Z,985.18
2016-02-13T01:02:16.144Z,985.19
2016-02-13T01:03:16.162Z,985.18
2016-02-13T01:04:16.165Z,985.15
2016-02-13T01:05:16.184Z,985.15
2016-02-13T01:06:16.202Z,985.18
2016-02-13T01:07:16.221Z,985.14
2016-02-13T01:08:16.239Z,985.14
2016-02-13T01:09:16.258Z,985.14
2016-02-13T01:10:16.260Z,985.15
2016-02-13T01:11:16.278Z,985.12
2016-02-13T01:12:16.297Z,985.13
2016-02-13T01:13:16.315Z,985.18
2016-02-13T01:14:16.334Z,985.13
2016-02-13T01:15:16.336Z,985.12
2016-02-13T01:16:16.354Z,985.08
2016-02-13T01:17:16.372Z,985.1
2016-02-13T01:18:16.398Z,985.1
2016-02-13T01:19:16.415Z,985.11
2016-02-13T01:20:16.419Z,985.09
2016-02-13T01:21:16.437Z,985.09
2016-02-13T01:22:16.457Z,985.06
2016-02-13T01:23:16.475Z,985.07
2016-02-13T01:24:16.478Z,985.08
2016-02-13T01:25:16.496Z,985.09
2016-02-13T01:26:16.515Z,985.06
2016-02-13T01:27:16.533Z,985.01
2016-02-13T01:28:16.551Z,985.02
2016-02-13T01:29:16.569Z,985.03
2016-02-13T01:30:16.572Z,984.98
2016-02-13T01:31:16.592Z,984.99
2016-02-13T01:32:16.625Z,984.97
2016-02-13T01:33:16.628Z,984.95
2016-02-13T01:34:16.647Z,984.9
2016-02-13T01:35:16.665Z,984.95
2016-02-13T01:36:16.667Z,984.96
2016-02-13T01:37:16.686Z,984.95
2016-02-13T01:38:16.704Z,984.97
2016-02-13T01:39:16.723Z,984.91
2016-02-13T01:40:16.742Z,984.9
2016-02-13T01:41:16.745Z,984.92
2016-02-13T01:42:16.763Z,984.92
2016-02-13T01:43:16.781Z,984.92
2016-02-13T01:44:16.800Z,984.89
2016-02-13T01:45:16.803Z,984.91
2016-02-13T01:46:16.821Z,984.94
2016-02-13T01:47:16.839Z,984.96
2016-02-13T01:48:16.858Z,984.88
2016-02-13T01:49:16.861Z,984.92
2016-02-13T01:50:16.879Z,984.9
2016-02-13T01:51:16.897Z,984.89
2016-02-13T01:52:16.916Z,984.89
2016-02-13T01:53:16.934Z,984.88
2016-02-13T01:54:16.939Z,984.89
2016-02-13T01:55:16.958Z,984.91
2016-02-13T01:56:16.976Z,984.9
2016-02-13T01:57:16.996Z,984.86
2016-02-13T01:58:17.014Z,984.83
2016-02-13T01:59:17.032Z,984.84
2016-02-13T02:00:17.035Z,984.83
2016-02-13T02:01:17.053Z,984.83
2016-02-13T02:02:17.071Z,984.8
2016-02-13T02:03:17.090Z,984.78
2016-02-13T02:04:17.109Z,984.81
2016-02-13T02:05:17.112Z,984.79
2016-02-13T02:06:17.131Z,984.77
2016-02-13T02:07:17.150Z,984.78
2016-02-13T02:08:17.169Z,984.82
2016-02-13T02:09:17.186Z,984.81
2016-02-13T02:10:17.189Z,984.81
2016-02-13T02:11:17.207Z,984.79
2016-02-13T02:12:17.225Z,984.73
2016-02-13T02:13:17.227Z,984.77
2016-02-13T02:14:17.247Z,984.77
2016-02-13T02:15:17.265Z,984.8
2016-02-13T02:16:17.299Z,984.78
2016-02-13T02:17:17.302Z,984.75
2016-02-13T02:18:17.304Z,984.74
2016-02-13T02:19:17.338Z,984.77
2016-02-13T02:20:17.341Z,984.75
2016-02-13T02:21:17.359Z,984.72
2016-02-13T02:22:17.377Z,984.78
2016-02-13T02:23:17.381Z,984.78
2016-02-13T02:24:17.402Z,984.76
2016-02-13T02:25:17.420Z,984.75
2016-02-13T02:26:17.438Z,984.78
2016-02-13T02:27:17.458Z,984.81
2016-02-13T02:28:17.460Z,984.84
2016-02-13T02:29:17.478Z,984.81
2016-02-13T02:30:17.497Z,984.78
2016-02-13T02:31:17.515Z,984.83
2016-02-13T02:32:17.533Z,984.81
2016-02-13T02:33:17.536Z,984.75
2016-02-13T02:34:17.555Z,984.76
2016-02-13T02:35:17.573Z,984.73
2016-02-13T02:36:17.591Z,984.77
2016-02-13T02:37:17.610Z,984.76
2016-02-13T02:38:17.628Z,984.72
2016-02-13T02:39:17.630Z,984.71
2016-02-13T02:40:17.649Z,984.74
2016-02-13T02:41:17.667Z,984.72
2016-02-13T02:42:17.684Z,984.7
2016-02-13T02:43:17.706Z,984.73
2016-02-13T02:44:17.724Z,984.7
2016-02-13T02:45:17.727Z,984.68
2016-02-13T02:46:17.745Z,984.68
2016-02-13T02:47:17.747Z,984.67
2016-02-13T02:48:17.766Z,984.67
2016-02-13T02:49:17.784Z,984.64
2016-02-13T02:50:17.802Z,984.64
2016-02-13T02:51:17.821Z,984.61
2016-02-13T02:52:17.824Z,984.62
2016-02-13T02:53:17.842Z,984.63
2016-02-13T02:54:17.861Z,984.58
2016-02-13T02:55:17.881Z,984.54
2016-02-13T02:56:17.883Z,984.55
2016-02-13T02:57:17.902Z,984.58
2016-02-13T02:58:17.921Z,984.53
2016-02-13T02:59:17.939Z,984.55
2016-02-13T03:00:17.957Z,984.55
2016-02-13T03:01:17.977Z,984.49
2016-02-13T03:02:17.979Z,984.55
2016-02-13T03:03:17.998Z,984.51
2016-02-13T03:04:18.017Z,984.54
2016-02-13T03:05:18.019Z,984.54
2016-02-13T03:06:18.036Z,984.48
2016-02-13T03:07:18.055Z,984.51
2016-02-13T03:08:18.074Z,984.5
2016-02-13T03:09:18.093Z,984.46
2016-02-13T03:10:18.096Z,984.46
2016-02-13T03:11:18.114Z,984.49
2016-02-13T03:12:18.133Z,984.52
2016-02-13T03:13:18.150Z,984.51
2016-02-13T03:14:18.170Z,984.51
2016-02-13T03:15:18.175Z,984.48
2016-02-13T03:16:18.192Z,984.52
2016-02-13T03:17:18.227Z,984.51
2016-02-13T03:18:18.216Z,984.52
2016-02-13T03:19:18.234Z,984.48
2016-02-13T03:20:18.253Z,984.54
2016-02-13T03:21:18.262Z,984.52
2016-02-13T03:22:18.281Z,984.51
2016-02-13T03:23:18.298Z,984.5
2016-02-13T03:24:18.300Z,984.48
2016-02-13T03:25:18.319Z,984.51
2016-02-13T03:26:18.339Z,984.52
2016-02-13T03:27:18.359Z,984.49
2016-02-13T03:28:18.361Z,984.52
2016-02-13T03:29:18.380Z,984.48
2016-02-13T03:30:18.397Z,984.44
2016-02-13T03:31:18.417Z,984.48
2016-02-13T03:32:18.435Z,984.42
2016-02-13T03:33:18.453Z,984.42
2016-02-13T03:34:18.455Z,984.38
2016-02-13T03:35:18.474Z,984.35
2016-02-13T03:36:18.492Z,984.31
2016-02-13T03:37:18.511Z,984.29
2016-02-13T03:38:18.513Z,984.29
2016-02-13T03:39:18.532Z,984.27
2016-02-13T03:40:18.550Z,984.27
2016-02-13T03:41:18.569Z,984.3
2016-02-13T03:42:18.567Z,984.3
2016-02-13T03:43:18.574Z,984.31
2016-02-13T03:44:18.579Z,984.32
2016-02-13T03:45:18.585Z,984.35
2016-02-13T03:46:18.592Z,984.35
2016-02-13T03:47:18.603Z,984.35
2016-02-13T03:48:18.602Z,984.33
2016-02-13T03:49:18.616Z,984.36
2016-02-13T03:50:18.645Z,984.32
2016-02-13T03:51:18.644Z,984.31
2016-02-13T03:52:18.643Z,984.34
2016-02-13T03:53:18.661Z,984.33
2016-02-13T03:54:18.677Z,984.35
2016-02-13T03:55:18.694Z,984.37
2016-02-13T03:56:18.695Z,984.35
2016-02-13T03:57:18.711Z,984.36
2016-02-13T03:58:18.730Z,984.36
2016-02-13T03:59:18.749Z,984.36
2016-02-13T04:00:18.765Z,984.41
2016-02-13T04:01:18.767Z,984.42
2016-02-13T04:02:18.785Z,984.4
2016-02-13T04:03:18.804Z,984.4
2016-02-13T04:04:18.822Z,984.39
2016-02-13T04:05:18.826Z,984.41
2016-02-13T04:06:18.844Z,984.4
2016-02-13T04:07:18.869Z,984.42
2016-02-13T04:08:18.879Z,984.37
2016-02-13T04:09:18.961Z,984.38
2016-02-13T04:10:18.907Z,984.41
2016-02-13T04:11:18.925Z,984.38
2016-02-13T04:12:18.927Z,984.39
2016-02-13T04:13:18.946Z,984.39
2016-02-13T04:14:18.963Z,984.4
2016-02-13T04:15:18.982Z,984.4
2016-02-13T04:16:18.986Z,984.38
2016-02-13T04:17:19.019Z,984.39
2016-02-13T04:18:19.021Z,984.38
2016-02-13T04:19:19.045Z,984.41
2016-02-13T04:20:19.048Z,984.45
2016-02-13T04:21:19.066Z,984.43
2016-02-13T04:22:19.084Z,984.45
2016-02-13T04:23:19.103Z,984.43
2016-02-13T04:24:19.121Z,984.42
2016-02-13T04:25:19.124Z,984.44
2016-02-13T04:26:19.142Z,984.45
2016-02-13T04:27:19.161Z,984.48
2016-02-13T04:28:19.163Z,984.39
2016-02-13T04:29:19.179Z,984.35
2016-02-13T04:30:19.197Z,984.34
2016-02-13T04:31:19.215Z,984.39
2016-02-13T04:32:19.235Z,984.4
2016-02-13T04:33:19.254Z,984.36
2016-02-13T04:34:19.256Z,984.43
2016-02-13T04:35:19.274Z,984.34
2016-02-13T04:36:19.293Z,984.33
2016-02-13T04:37:19.295Z,984.32
2016-02-13T04:38:19.314Z,984.31
2016-02-13T04:39:19.333Z,984.33
2016-02-13T04:40:19.352Z,984.27
2016-02-13T04:41:19.354Z,984.27
2016-02-13T04:42:19.373Z,984.28
2016-02-13T04:43:19.392Z,984.27
2016-02-13T04:44:19.411Z,984.28
2016-02-13T04:45:19.413Z,984.27
2016-02-13T04:46:19.431Z,984.27
2016-02-13T04:47:19.449Z,984.27
2016-02-13T04:48:19.470Z,984.24
2016-02-13T04:49:19.472Z,984.22
2016-02-13T04:50:19.491Z,984.19
2016-02-13T04:51:19.511Z,984.15
2016-02-13T04:52:19.529Z,984.2
2016-02-13T04:53:19.531Z,984.12
2016-02-13T04:54:19.551Z,984.16
2016-02-13T04:55:19.569Z,984.14
2016-02-13T04:56:19.587Z,984.14
2016-02-13T04:57:19.589Z,984.17
2016-02-13T04:58:19.610Z,984.19
2016-02-13T04:59:19.627Z,984.16
2016-02-13T05:00:19.632Z,984.15
2016-02-13T05:01:19.650Z,984.18
2016-02-13T05:02:19.669Z,984.17
2016-02-13T05:03:19.686Z,984.16
2016-02-13T05:04:19.706Z,984.17
2016-02-13T05:05:19.708Z,984.12
2016-02-13T05:06:19.726Z,984.11
2016-02-13T05:07:19.744Z,984.13
2016-02-13T05:08:19.766Z,984.11
2016-02-13T05:09:19.784Z,984.11
2016-02-13T05:10:19.786Z,984.15
2016-02-13T05:11:19.805Z,984.14
2016-02-13T05:12:19.808Z,984.14
2016-02-13T05:13:19.826Z,984.17
2016-02-13T05:14:19.844Z,984.12
2016-02-13T05:15:19.863Z,984.16
2016-02-13T05:16:19.880Z,984.12
2016-02-13T05:17:19.885Z,984.13
2016-02-13T05:18:19.904Z,984.1
2016-02-13T05:19:19.923Z,984.14
2016-02-13T05:20:19.925Z,984.12
2016-02-13T05:21:19.944Z,984.09
2016-02-13T05:22:19.962Z,984.08
2016-02-13T05:23:19.980Z,984.04
2016-02-13T05:24:19.983Z,984.07
2016-02-13T05:25:20.001Z,984.06
2016-02-13T05:26:20.023Z,984.11
2016-02-13T05:27:20.025Z,984.08
2016-02-13T05:28:20.043Z,984.06
2016-02-13T05:29:20.111Z,984.08
2016-02-13T05:30:20.082Z,984.08
2016-02-13T05:31:20.085Z,984.01
2016-02-13T05:32:20.103Z,984.01
2016-02-13T05:33:20.123Z,983.99
2016-02-13T05:34:20.140Z,984.03
2016-02-13T05:35:20.146Z,983.99
2016-02-13T05:36:20.164Z,983.96
2016-02-13T05:37:20.183Z,984
2016-02-13T05:38:20.186Z,983.98
2016-02-13T05:39:20.204Z,983.98
2016-02-13T05:40:20.222Z,983.95
2016-02-13T05:41:20.240Z,984
2016-02-13T05:42:20.242Z,984.01
2016-02-13T05:43:20.278Z,983.95
2016-02-13T05:44:20.280Z,983.94
2016-02-13T05:45:20.298Z,983.93
2016-02-13T05:46:20.300Z,983.97
2016-02-13T05:47:20.319Z,983.96
2016-02-13T05:48:20.338Z,983.9
2016-02-13T05:49:20.356Z,983.91
2016-02-13T05:50:20.358Z,983.97
2016-02-13T05:51:20.377Z,983.89
2016-02-13T05:52:20.395Z,983.94
2016-02-13T05:53:20.414Z,983.92
2016-02-13T05:54:20.416Z,983.91
2016-02-13T05:55:20.437Z,983.89
2016-02-13T05:56:20.455Z,983.89
2016-02-13T05:57:20.473Z,983.94
2016-02-13T05:58:20.475Z,983.89
2016-02-13T05:59:20.493Z,983.89
2016-02-13T06:00:20.514Z,983.92
2016-02-13T06:01:20.517Z,983.94
2016-02-13T06:02:20.550Z,983.94
2016-02-13T06:03:20.553Z,983.88
2016-02-13T06:04:20.571Z,983.94
2016-02-13T06:05:20.575Z,983.89
2016-02-13T06:06:20.593Z,983.89
2016-02-13T06:07:20.627Z,983.89
2016-02-13T06:08:20.630Z,983.88
2016-02-13T06:09:20.634Z,983.9
2016-02-13T06:10:20.652Z,983.9
2016-02-13T06:11:20.670Z,983.89
2016-02-13T06:12:20.691Z,983.87
2016-02-13T06:13:20.694Z,983.9
2016-02-13T06:14:20.711Z,983.9
2016-02-13T06:15:20.730Z,983.89
2016-02-13T06:16:20.733Z,983.9
2016-02-13T06:17:20.751Z,983.9
2016-02-13T06:18:20.769Z,983.92
2016-02-13T06:19:20.788Z,983.9
2016-02-13T06:20:20.806Z,983.88
2016-02-13T06:21:20.808Z,983.85
2016-02-13T06:22:20.827Z,983.85
2016-02-13T06:23:20.846Z,983.86
2016-02-13T06:24:20.848Z,983.85
2016-02-13T06:25:20.866Z,983.83
2016-02-13T06:26:20.885Z,983.83
2016-02-13T06:27:20.903Z,983.81
2016-02-13T06:28:20.906Z,983.81
2016-02-13T06:29:20.924Z,983.8
2016-02-13T06:30:20.931Z,983.82
2016-02-13T06:31:20.949Z,983.8
2016-02-13T06:32:20.967Z,983.81
2016-02-13T06:33:20.985Z,983.81
2016-02-13T06:34:21.005Z,983.78
2016-02-13T06:35:21.007Z,983.79
2016-02-13T06:36:21.025Z,983.83
2016-02-13T06:37:21.043Z,983.8
2016-02-13T06:38:21.046Z,983.81
2016-02-13T06:39:21.066Z,983.79
2016-02-13T06:40:21.085Z,983.83
2016-02-13T06:41:21.087Z,983.79
2016-02-13T06:42:21.121Z,983.79
2016-02-13T06:43:21.123Z,983.8
2016-02-13T06:44:21.143Z,983.81
2016-02-13T06:45:21.145Z,983.79
2016-02-13T06:46:21.163Z,983.84
2016-02-13T06:47:21.183Z,983.81
2016-02-13T06:48:21.202Z,983.83
2016-02-13T06:49:21.205Z,983.86
2016-02-13T06:50:21.223Z,983.85
2016-02-13T06:51:21.241Z,983.9
2016-02-13T06:52:21.260Z,983.88
2016-02-13T06:53:21.262Z,983.85
2016-02-13T06:54:21.280Z,983.82
2016-02-13T06:55:21.299Z,983.82
2016-02-13T06:56:21.303Z,983.87
2016-02-13T06:57:21.320Z,983.87
2016-02-13T06:58:21.339Z,983.83
2016-02-13T06:59:21.358Z,983.84
2016-02-13T07:00:21.360Z,983.86
2016-02-13T07:01:21.410Z,983.85
2016-02-13T07:02:21.664Z,983.83
2016-02-13T07:03:21.416Z,983.88
2016-02-13T07:04:21.419Z,983.83
2016-02-13T07:05:21.437Z,983.84
2016-02-13T07:06:21.457Z,983.82
2016-02-13T07:07:21.460Z,983.85
2016-02-13T07:08:21.477Z,983.85
2016-02-13T07:09:21.512Z,983.87
2016-02-13T07:10:21.514Z,983.87
2016-02-13T07:11:21.517Z,983.87
2016-02-13T07:12:21.551Z,983.83
2016-02-13T07:13:21.555Z,983.87
2016-02-13T07:14:21.573Z,983.85
2016-02-13T07:15:21.576Z,983.84
2016-02-13T07:16:21.595Z,983.81
2016-02-13T07:17:21.614Z,983.81
2016-02-13T07:18:21.631Z,983.76
2016-02-13T07:19:21.634Z,983.78
2016-02-13T07:20:21.653Z,983.78
2016-02-13T07:21:21.672Z,983.78
2016-02-13T07:22:21.674Z,983.79
2016-02-13T07:23:21.692Z,983.83
2016-02-13T07:24:21.711Z,983.85
2016-02-13T07:25:21.729Z,983.84
2016-02-13T07:26:21.731Z,983.86
2016-02-13T07:27:21.750Z,983.91
2016-02-13T07:28:21.768Z,983.92
2016-02-13T07:29:21.787Z,983.92
2016-02-13T07:30:21.789Z,983.96
2016-02-13T07:31:21.810Z,983.91
2016-02-13T07:32:21.827Z,983.96
2016-02-13T07:33:21.834Z,983.89
2016-02-13T07:34:21.852Z,983.9
2016-02-13T07:35:21.872Z,983.91
2016-02-13T07:36:21.874Z,983.92
2016-02-13T07:37:21.892Z,983.93
2016-02-13T07:38:21.910Z,983.94
2016-02-13T07:39:21.929Z,983.93
2016-02-13T07:40:21.931Z,983.97
2016-02-13T07:41:21.950Z,983.95
2016-02-13T07:42:21.970Z,983.97
2016-02-13T07:43:21.972Z,983.95
2016-02-13T07:44:21.989Z,983.97
2016-02-13T07:45:22.009Z,983.96
2016-02-13T07:46:22.027Z,983.99
2016-02-13T07:47:22.030Z,983.95
2016-02-13T07:48:22.048Z,983.94
2016-02-13T07:49:22.066Z,983.96
2016-02-13T07:50:22.084Z,983.96
2016-02-13T07:51:22.089Z,983.98
2016-02-13T07:52:22.107Z,983.97
2016-02-13T07:53:22.126Z,983.96
2016-02-13T07:54:22.129Z,983.95
2016-02-13T07:55:22.147Z,983.91
2016-02-13T07:56:22.165Z,983.86
2016-02-13T07:57:22.184Z,983.89
2016-02-13T07:58:22.201Z,983.87
2016-02-13T07:59:22.204Z,983.9
2016-02-13T08:00:22.224Z,983.92
2016-02-13T08:01:22.241Z,983.9
2016-02-13T08:02:22.248Z,983.9
2016-02-13T08:03:22.267Z,983.91
2016-02-13T08:04:22.286Z,983.93
2016-02-13T08:05:22.297Z,983.9
2016-02-13T08:06:22.302Z,983.84
2016-02-13T08:07:22.320Z,983.9
2016-02-13T08:08:22.340Z,983.89
2016-02-13T08:09:22.357Z,983.89
2016-02-13T08:10:22.360Z,983.86
2016-02-13T08:11:22.378Z,983.9
2016-02-13T08:12:22.396Z,983.87
2016-02-13T08:13:22.415Z,983.88
2016-02-13T08:14:22.418Z,983.87
2016-02-13T08:15:22.436Z,983.88
2016-02-13T08:16:22.454Z,983.88
2016-02-13T08:17:22.474Z,983.89
2016-02-13T08:18:22.477Z,983.87
2016-02-13T08:19:22.495Z,983.84
2016-02-13T08:20:22.515Z,983.83
2016-02-13T08:21:22.533Z,983.85
2016-02-13T08:22:22.536Z,983.82
2016-02-13T08:23:22.553Z,983.85
2016-02-13T08:24:22.572Z,983.82
2016-02-13T08:25:22.591Z,983.77
2016-02-13T08:26:22.596Z,983.79
2016-02-13T08:27:22.614Z,983.81
2016-02-13T08:28:22.632Z,983.78
2016-02-13T08:29:22.637Z,983.78
2016-02-13T08:30:22.655Z,983.77
2016-02-13T08:31:22.675Z,983.74
2016-02-13T08:32:22.694Z,983.76
2016-02-13T08:33:22.697Z,983.73
2016-02-13T08:34:22.714Z,983.75
2016-02-13T08:35:22.735Z,983.77
2016-02-13T08:36:22.743Z,983.79
2016-02-13T08:37:22.761Z,983.79
2016-02-13T08:38:22.779Z,983.76
2016-02-13T08:39:22.781Z,983.78
2016-02-13T08:40:22.800Z,983.78
2016-02-13T08:41:22.818Z,983.77
2016-02-13T08:42:22.837Z,983.83
2016-02-13T08:43:22.840Z,983.82
2016-02-13T08:44:22.859Z,983.75
2016-02-13T08:45:22.878Z,983.75
2016-02-13T08:46:22.897Z,983.75
2016-02-13T08:47:22.915Z,983.75
2016-02-13T08:48:22.949Z,983.76
2016-02-13T08:49:22.952Z,983.76
2016-02-13T08:50:22.954Z,983.75
2016-02-13T08:51:22.973Z,983.77
2016-02-13T08:52:22.975Z,983.76
2016-02-13T08:53:22.994Z,983.79
2016-02-13T08:54:23.012Z,983.74
2016-02-13T08:55:23.033Z,983.74
2016-02-13T08:56:23.035Z,983.75
2016-02-13T08:57:23.054Z,983.74
2016-02-13T08:58:23.071Z,983.76
2016-02-13T08:59:23.091Z,983.73
2016-02-13T09:00:23.155Z,983.7
2016-02-13T09:01:23.174Z,983.76
2016-02-13T09:02:23.129Z,983.73
2016-02-13T09:03:23.152Z,983.73
2016-02-13T09:04:23.171Z,983.74
2016-02-13T09:05:23.174Z,983.74
2016-02-13T09:06:23.192Z,983.75
2016-02-13T09:07:23.210Z,983.71
2016-02-13T09:08:23.228Z,983.7
2016-02-13T09:09:23.247Z,983.72
2016-02-13T09:10:23.250Z,983.72
2016-02-13T09:11:23.268Z,983.7
2016-02-13T09:12:23.286Z,983.72
2016-02-13T09:13:23.306Z,983.67
2016-02-13T09:14:23.308Z,983.68
2016-02-13T09:15:23.327Z,983.7
2016-02-13T09:16:23.345Z,983.72
2016-02-13T09:17:23.363Z,983.71
2016-02-13T09:18:23.381Z,983.73
2016-02-13T09:19:23.400Z,983.65
2016-02-13T09:20:23.403Z,983.65
2016-02-13T09:21:23.421Z,983.65
2016-02-13T09:22:23.440Z,983.64
2016-02-13T09:23:23.458Z,983.63
2016-02-13T09:24:23.476Z,983.6
2016-02-13T09:25:23.478Z,983.62
2016-02-13T09:26:23.497Z,983.61
2016-02-13T09:27:23.515Z,983.68
2016-02-13T09:28:23.534Z,983.67
2016-02-13T09:29:23.552Z,983.68
2016-02-13T09:30:23.556Z,983.66
2016-02-13T09:31:23.573Z,983.69
2016-02-13T09:32:23.595Z,983.65
2016-02-13T09:33:23.614Z,983.69
2016-02-13T09:34:23.633Z,983.74
2016-02-13T09:35:23.635Z,983.69
2016-02-13T09:36:23.654Z,983.69
2016-02-13T09:37:23.672Z,983.67
2016-02-13T09:38:23.690Z,983.61
2016-02-13T09:39:23.709Z,983.62
2016-02-13T09:40:23.727Z,983.57
2016-02-13T09:41:23.729Z,983.53
2016-02-13T09:42:23.748Z,983.54
2016-02-13T09:43:23.766Z,983.5
2016-02-13T09:44:23.784Z,983.5
2016-02-13T09:45:23.804Z,983.48
2016-02-13T09:46:23.806Z,983.45
2016-02-13T09:47:23.840Z,983.45
2016-02-13T09:48:23.844Z,983.43
2016-02-13T09:49:23.862Z,983.43
2016-02-13T09:50:23.880Z,983.42
2016-02-13T09:51:23.900Z,983.42
2016-02-13T09:52:23.904Z,983.38
2016-02-13T09:53:23.921Z,983.38
2016-02-13T09:54:23.940Z,983.37
2016-02-13T09:55:23.958Z,983.36
2016-02-13T09:56:23.976Z,983.36
2016-02-13T09:57:23.978Z,983.37
2016-02-13T09:58:23.997Z,983.4
2016-02-13T09:59:24.047Z,983.4
2016-02-13T10:00:24.035Z,983.38
2016-02-13T10:01:24.054Z,983.36
2016-02-13T10:02:24.077Z,983.38
2016-02-13T10:03:24.080Z,983.3
2016-02-13T10:04:24.113Z,983.31
2016-02-13T10:05:24.116Z,983.3
2016-02-13T10:06:24.134Z,983.29
2016-02-13T10:07:24.154Z,983.32
2016-02-13T10:08:24.157Z,983.29
2016-02-13T10:09:24.175Z,983.27
2016-02-13T10:10:24.194Z,983.29
2016-02-13T10:11:24.212Z,983.27
2016-02-13T10:12:24.230Z,983.29
2016-02-13T10:13:24.248Z,983.26
2016-02-13T10:14:24.251Z,983.25
2016-02-13T10:15:24.269Z,983.2
2016-02-13T10:16:24.288Z,983.16
2016-02-13T10:17:24.307Z,983.12
2016-02-13T10:18:24.372Z,983.09
2016-02-13T10:19:24.344Z,983.07
2016-02-13T10:20:24.363Z,983.09
2016-02-13T10:21:24.380Z,983.07
2016-02-13T10:22:24.398Z,983.05
2016-02-13T10:23:24.416Z,983.04
2016-02-13T10:24:24.435Z,983.01
2016-02-13T10:25:24.438Z,983.01
2016-02-13T10:26:24.457Z,983.02
2016-02-13T10:27:24.461Z,982.96
2016-02-13T10:28:24.494Z,982.88
2016-02-13T10:29:24.497Z,982.89
2016-02-13T10:30:24.514Z,982.86
2016-02-13T10:31:24.533Z,982.81
2016-02-13T10:32:24.554Z,982.81
2016-02-13T10:33:24.571Z,982.77
2016-02-13T10:34:24.590Z,982.74
2016-02-13T10:35:24.593Z,982.75
2016-02-13T10:36:24.627Z,982.7
2016-02-13T10:37:24.629Z,982.73
2016-02-13T10:38:24.648Z,982.72
2016-02-13T10:39:24.665Z,982.65
2016-02-13T10:40:24.684Z,982.67
2016-02-13T10:41:24.703Z,982.65
2016-02-13T10:42:24.720Z,982.63
2016-02-13T10:43:24.726Z,982.6
2016-02-13T10:44:24.744Z,982.58
2016-02-13T10:45:24.763Z,982.53
2016-02-13T10:46:24.781Z,982.54
2016-02-13T10:47:24.800Z,982.54
2016-02-13T10:48:24.817Z,982.54
2016-02-13T10:49:24.836Z,982.51
2016-02-13T10:50:24.856Z,982.49
2016-02-13T10:51:24.873Z,982.49
2016-02-13T10:52:24.877Z,982.48
2016-02-13T10:53:24.895Z,982.47
2016-02-13T10:54:24.913Z,982.48
2016-02-13T10:55:24.932Z,982.45
2016-02-13T10:56:24.951Z,982.45
2016-02-13T10:57:24.969Z,982.47
2016-02-13T10:58:24.988Z,982.46
2016-02-13T10:59:25.007Z,982.45
2016-02-13T11:00:25.009Z,982.42
2016-02-13T11:01:25.026Z,982.38
2016-02-13T11:02:25.049Z,982.35
2016-02-13T11:03:25.068Z,982.31
2016-02-13T11:04:25.086Z,982.29
2016-02-13T11:05:25.106Z,982.28
2016-02-13T11:06:25.123Z,982.28
2016-02-13T11:07:25.141Z,982.27
2016-02-13T11:08:25.160Z,982.27
2016-02-13T11:09:25.178Z,982.26
2016-02-13T11:10:25.181Z,982.27
2016-02-13T11:11:25.214Z,982.28
2016-02-13T11:12:25.219Z,982.3
2016-02-13T11:13:25.237Z,982.32
2016-02-13T11:14:25.256Z,982.29
2016-02-13T11:15:25.274Z,982.3
2016-02-13T11:16:25.293Z,982.26
2016-02-13T11:17:25.310Z,982.26
2016-02-13T11:18:25.328Z,982.28
2016-02-13T11:19:25.347Z,982.19
2016-02-13T11:20:25.365Z,982.19
2016-02-13T11:21:25.386Z,982.13
2016-02-13T11:22:25.388Z,982.12
2016-02-13T11:23:25.407Z,982.07
2016-02-13T11:24:25.425Z,982.12
2016-02-13T11:25:25.443Z,982.1
2016-02-13T11:26:25.461Z,982.11
2016-02-13T11:27:25.480Z,982.12
2016-02-13T11:28:25.498Z,982.08
2016-02-13T11:29:25.516Z,982.06
2016-02-13T11:30:25.536Z,982.05
2016-02-13T11:31:25.553Z,982.05
2016-02-13T11:32:25.572Z,982.01
2016-02-13T11:33:25.593Z,981.92
2016-02-13T11:34:25.610Z,981.96
2016-02-13T11:35:25.629Z,981.93
2016-02-13T11:36:25.648Z,981.89
2016-02-13T11:37:25.665Z,981.9
2016-02-13T11:38:25.685Z,981.87
2016-02-13T11:39:25.703Z,981.86
2016-02-13T11:40:25.705Z,981.84
2016-02-13T11:41:25.740Z,981.84
2016-02-13T11:42:25.743Z,981.8
2016-02-13T11:43:25.777Z,981.84
2016-02-13T11:44:25.780Z,981.83
2016-02-13T11:45:25.799Z,981.82
2016-02-13T11:46:25.816Z,981.81
2016-02-13T11:47:25.836Z,981.78
2016-02-13T11:48:25.854Z,981.78
2016-02-13T11:49:25.873Z,981.77
2016-02-13T11:50:25.891Z,981.76
2016-02-13T11:51:25.909Z,981.8
2016-02-13T11:52:26.412Z,981.81
2016-02-13T11:53:25.946Z,981.76
2016-02-13T11:54:25.964Z,981.81
2016-02-13T11:55:25.983Z,981.75
2016-02-13T11:56:26.002Z,981.76
2016-02-13T11:57:26.021Z,981.77
2016-02-13T11:58:26.039Z,981.76
2016-02-13T11:59:26.058Z,981.79
2016-02-13T12:00:26.077Z,981.8
2016-02-13T12:01:26.095Z,981.84
2016-02-13T12:02:26.129Z,981.84
2016-02-13T12:03:26.134Z,981.8
2016-02-13T12:04:26.152Z,981.83
2016-02-13T12:05:26.159Z,981.79
2016-02-13T12:06:26.178Z,981.82
2016-02-13T12:07:26.196Z,981.8
2016-02-13T12:08:26.214Z,981.82
2016-02-13T12:09:26.233Z,981.76
2016-02-13T12:10:26.251Z,981.77
2016-02-13T12:11:26.285Z,981.76
2016-02-13T12:12:26.288Z,981.73
2016-02-13T12:13:26.307Z,981.71
2016-02-13T12:14:26.325Z,981.7
2016-02-13T12:15:26.343Z,981.66
2016-02-13T12:16:26.364Z,981.69
2016-02-13T12:17:26.382Z,981.69
2016-02-13T12:18:26.400Z,981.64
2016-02-13T12:19:26.419Z,981.66
2016-02-13T12:20:26.436Z,981.59
2016-02-13T12:21:26.455Z,981.51
2016-02-13T12:22:26.490Z,981.54
2016-02-13T12:23:26.492Z,981.51
2016-02-13T12:24:26.527Z,981.55
2016-02-13T12:25:26.542Z,981.52
2016-02-13T12:26:26.560Z,981.5
2016-02-13T12:27:26.579Z,981.52
2016-02-13T12:28:26.584Z,981.52
2016-02-13T12:29:26.619Z,981.51
2016-02-13T12:30:26.621Z,981.48